KFBG/FBG METAR and TAF weather

Enter ICAO airport designator
Station Type Date Time Source
KFBG METAR 2022/05/23 12:56 UTC NOAA

KFBG 231256Z AUTO 26003KT 10SM FEW190 24/22 A3013 RMK AO2 SLP204 T02380215 $


Station Type Date Time Source
KFBG Decoded METAR 2022/05/23 12:56 UTC NOAA

Fort Bragg / Simmons Army Airfield, NC, United States (KFBG) 35-08N 078-56W 74M
May 23, 2022 - 08:56 AM EDT / 2022.05.23 1256 UTC
Wind: from the W (260 degrees) at 3 MPH (3 KT):0
Visibility: 10 mile(s):0
Sky conditions: mostly clear
Temperature: 74.8 F (23.8 C)
Dew Point: 70.7 F (21.5 C)
Relative Humidity: 86%
Pressure (altimeter): 30.13 in. Hg (1020 hPa)
ob: KFBG 231256Z AUTO 26003KT 10SM FEW190 24/22 A3013 RMK AO2 SLP204 T02380215
cycle: 13

Station Type Date Time Source
KFBG TAF 2022/05/23 10:38 UTC NOAA

TAF
AMD KFBG 231030Z 2310/2416 VRB06KT 9999 BKN080 QNH3010INS
TEMPO 2319/2321 8000 -RA VCTS BKN030CB
BECMG 2321/2322 36015G25KT 6000 -TSRA SCT015CB BKN040 BKN055 QNH3003INS
BECMG 2401/2402 VRB06KT 9999 VCSH BKN030 510023 QNH3001INS
BECMG 2405/2406 VRB06KT 9999 NSW BKN050 QNH3003INS TX27/2321Z TN19/2310Z

Example: see airport list